createdAt,value
2022-08-04T00:02:10.663Z,13.02
2022-08-04T00:04:46.421Z,8.63
2022-08-04T00:08:00.786Z,9.00
2022-08-04T00:10:28.485Z,6.80
2022-08-04T00:12:56.162Z,7.93
2022-08-04T00:15:24.236Z,9.60
2022-08-04T00:18:01.472Z,8.15
2022-08-04T00:20:32.723Z,9.07
2022-08-04T00:23:01.134Z,7.93
2022-08-04T00:25:28.641Z,7.70
2022-08-04T00:27:55.330Z,9.30
2022-08-04T00:30:22.267Z,11.70
2022-08-04T00:32:50.132Z,4.65
2022-08-04T00:35:17.410Z,6.13
2022-08-04T00:37:47.364Z,10.13
2022-08-04T00:40:24.991Z,11.10
2022-08-04T00:43:19.586Z,13.07
2022-08-04T00:46:10.882Z,4.68
2022-08-04T00:49:11.647Z,9.35
2022-08-04T00:52:31.918Z,7.78
2022-08-04T00:55:01.730Z,10.43
2022-08-04T00:58:01.436Z,10.05
2022-08-04T01:00:32.948Z,7.32
2022-08-04T01:03:18.697Z,9.80
2022-08-04T01:06:30.790Z,8.13
2022-08-04T01:09:26.777Z,9.13
2022-08-04T01:15:03.939Z,9.70
2022-08-04T01:17:36.668Z,9.88
2022-08-04T01:20:08.761Z,11.00
2022-08-04T01:23:00.290Z,6.50
2022-08-04T01:26:01.950Z,14.00
2022-08-04T01:29:01.188Z,11.25
2022-08-04T01:31:55.277Z,8.82
2022-08-04T01:34:23.335Z,20.70
2022-08-04T01:37:02.103Z,10.05
2022-08-04T01:39:41.312Z,10.13
2022-08-04T01:42:10.688Z,9.32
2022-08-04T01:44:39.951Z,10.30
2022-08-04T01:47:08.854Z,12.00
2022-08-04T01:49:40.548Z,7.75
2022-08-04T01:52:09.273Z,18.73
2022-08-04T01:54:39.889Z,13.68
2022-08-04T01:57:37.674Z,11.43
2022-08-04T01:59:56.378Z,9.27
2022-08-04T02:02:24.765Z,14.10
2022-08-04T02:04:52.091Z,13.32
2022-08-04T02:07:37.391Z,6.30
2022-08-04T02:10:25.775Z,7.88
2022-08-04T02:12:55.510Z,9.23
2022-08-04T02:15:46.607Z,11.50
2022-08-04T02:18:24.437Z,5.85
2022-08-04T02:20:58.632Z,5.25
2022-08-04T02:23:31.475Z,6.37
2022-08-04T02:26:02.031Z,4.25
2022-08-04T02:28:48.837Z,8.80
2022-08-04T02:31:31.117Z,7.00
2022-08-04T02:34:08.816Z,6.28
2022-08-04T02:36:40.610Z,4.32
2022-08-04T02:39:09.212Z,7.65
2022-08-04T02:41:37.380Z,8.95
2022-08-04T02:44:10.463Z,4.97
2022-08-04T02:46:38.757Z,10.82
2022-08-04T02:49:09.767Z,7.13
2022-08-04T02:51:41.119Z,7.47
2022-08-04T02:54:08.503Z,7.97
2022-08-04T02:56:37.455Z,11.13
2022-08-04T02:59:10.560Z,6.32
2022-08-04T03:01:38.299Z,15.32
2022-08-04T03:04:48.848Z,4.55
2022-08-04T03:07:49.153Z,8.00
2022-08-04T03:11:05.342Z,6.95
2022-08-04T03:13:47.105Z,6.32
2022-08-04T03:16:31.849Z,7.28
2022-08-04T03:19:15.196Z,6.18
2022-08-04T03:22:06.720Z,6.93
2022-08-04T03:24:48.340Z,7.95
2022-08-04T03:27:52.627Z,6.68
2022-08-04T03:30:58.939Z,8.90
2022-08-04T03:36:10.140Z,5.50
2022-08-04T03:38:57.108Z,3.58
2022-08-04T03:41:54.857Z,11.77
2022-08-04T03:44:32.452Z,8.30
2022-08-04T03:47:19.999Z,9.80
2022-08-04T03:49:55.522Z,11.18
2022-08-04T03:52:43.661Z,7.20
2022-08-04T03:55:37.171Z,5.68
2022-08-04T03:58:40.666Z,12.15
2022-08-04T04:02:01.651Z,4.57
2022-08-04T04:04:38.813Z,4.95
2022-08-04T04:07:44.984Z,8.75
2022-08-04T04:10:31.503Z,6.43
2022-08-04T04:13:16.197Z,9.82
2022-08-04T04:15:50.577Z,10.33
2022-08-04T04:18:38.132Z,4.23
2022-08-04T04:21:19.941Z,6.78
2022-08-04T04:24:01.282Z,11.35
2022-08-04T04:26:56.146Z,5.35
2022-08-04T04:29:44.464Z,8.70
2022-08-04T04:32:23.323Z,9.30
2022-08-04T04:35:28.016Z,6.47
2022-08-04T04:38:03.579Z,5.05
2022-08-04T04:40:51.768Z,6.72
2022-08-04T04:43:58.787Z,14.63
2022-08-04T04:46:28.113Z,4.47
2022-08-04T04:49:20.723Z,5.35
2022-08-04T04:52:03.193Z,5.40
2022-08-04T04:54:51.371Z,4.35
2022-08-04T04:57:21.059Z,6.82
2022-08-04T05:00:13.091Z,9.27
2022-08-04T05:03:13.317Z,8.18
2022-08-04T05:05:59.324Z,8.52
2022-08-04T05:08:43.561Z,4.32
2022-08-04T05:11:39.624Z,5.75
2022-08-04T05:14:36.727Z,6.30
2022-08-04T05:16:59.409Z,8.52
2022-08-04T05:19:53.761Z,5.85
2022-08-04T05:22:37.573Z,4.13
2022-08-04T05:25:16.880Z,3.05
2022-08-04T05:28:15.509Z,20.73
2022-08-04T05:30:49.423Z,9.20
2022-08-04T05:33:26.052Z,6.47
2022-08-04T05:36:20.293Z,5.15
2022-08-04T05:38:51.548Z,5.72
2022-08-04T05:41:19.329Z,12.23
2022-08-04T05:43:46.845Z,8.55
2022-08-04T05:46:16.934Z,8.20
2022-08-04T05:48:45.857Z,4.88
2022-08-04T05:51:14.112Z,5.88
2022-08-04T05:53:44.430Z,7.07
2022-08-04T05:56:14.001Z,8.30
2022-08-04T05:58:41.623Z,4.93
2022-08-04T06:01:11.538Z,7.63
2022-08-04T06:03:39.816Z,6.35
2022-08-04T06:06:07.643Z,8.73
2022-08-04T06:08:34.448Z,7.70
2022-08-04T06:11:05.498Z,6.47
2022-08-04T06:13:46.774Z,9.63
2022-08-04T06:16:29.692Z,9.85
2022-08-04T06:20:02.999Z,7.20
2022-08-04T06:21:50.923Z,10.13
2022-08-04T06:24:25.099Z,8.40
2022-08-04T06:26:53.362Z,5.47
2022-08-04T06:29:34.645Z,10.35
2022-08-04T06:32:31.094Z,9.23
2022-08-04T06:35:02.069Z,10.80
2022-08-04T06:37:42.693Z,9.77
2022-08-04T06:40:31.965Z,13.48
2022-08-04T06:43:07.218Z,7.43
2022-08-04T06:45:37.067Z,19.60
2022-08-04T06:48:06.500Z,10.98
2022-08-04T06:51:25.591Z,13.82
2022-08-04T06:53:22.642Z,6.03
2022-08-04T06:55:51.152Z,8.57
2022-08-04T06:58:20.642Z,4.22
2022-08-04T07:00:48.774Z,4.95
2022-08-04T07:03:18.159Z,3.38
2022-08-04T07:05:47.471Z,5.32
2022-08-04T07:08:14.776Z,5.47
2022-08-04T07:10:41.859Z,3.83
2022-08-04T07:13:10.250Z,5.03
2022-08-04T07:15:41.353Z,4.72
2022-08-04T07:18:07.972Z,3.42
2022-08-04T07:20:36.735Z,3.55
2022-08-04T07:23:07.875Z,4.78
2022-08-04T07:26:10.829Z,5.15
2022-08-04T07:28:25.883Z,4.25
2022-08-04T07:30:54.372Z,3.20
2022-08-04T07:33:21.859Z,2.13
2022-08-04T07:36:09.895Z,5.45
2022-08-04T07:38:48.572Z,2.03
2022-08-04T07:41:37.796Z,2.15
2022-08-04T07:44:05.624Z,2.63
2022-08-04T07:46:32.359Z,2.95
2022-08-04T07:49:01.360Z,2.53
2022-08-04T07:51:30.744Z,4.53
2022-08-04T07:53:58.721Z,5.65
2022-08-04T07:56:26.900Z,2.40
2022-08-04T07:58:54.306Z,1.35
2022-08-04T08:01:21.597Z,10.15
2022-08-04T08:03:48.674Z,2.60
2022-08-04T08:06:31.171Z,2.55
2022-08-04T08:09:01.991Z,3.70
2022-08-04T08:12:38.840Z,3.65
2022-08-04T08:14:27.455Z,3.33
2022-08-04T08:16:54.115Z,4.63
2022-08-04T08:19:21.008Z,6.97
2022-08-04T08:21:59.403Z,1.95
2022-08-04T08:24:27.891Z,4.20
2022-08-04T08:26:54.675Z,4.43
2022-08-04T08:29:21.410Z,2.60
2022-08-04T08:31:57.121Z,3.75
2022-08-04T08:34:27.932Z,3.10
2022-08-04T08:37:29.247Z,1.48
2022-08-04T08:40:40.174Z,3.88
2022-08-04T08:44:00.368Z,7.45
2022-08-04T08:46:48.868Z,5.28
2022-08-04T08:50:00.988Z,4.63
2022-08-04T08:53:01.351Z,5.20
2022-08-04T08:55:40.577Z,2.00
2022-08-04T08:58:21.196Z,3.55
2022-08-04T09:00:50.530Z,2.47
2022-08-04T09:03:51.204Z,3.97
2022-08-04T09:06:46.435Z,3.83
2022-08-04T09:09:31.696Z,5.07
2022-08-04T09:12:25.693Z,2.47
2022-08-04T09:15:01.476Z,3.42
2022-08-04T09:17:33.628Z,2.63
2022-08-04T09:20:13.209Z,4.30
2022-08-04T09:22:50.699Z,2.53
2022-08-04T09:25:25.698Z,3.47
2022-08-04T09:28:00.727Z,6.32
2022-08-04T09:30:56.833Z,2.50
2022-08-04T09:33:44.897Z,2.95
2022-08-04T09:36:29.049Z,1.38
2022-08-04T09:39:10.902Z,1.90
2022-08-04T09:42:10.140Z,3.65
2022-08-04T09:44:51.264Z,3.53
2022-08-04T09:47:49.481Z,3.75
2022-08-04T09:50:35.819Z,2.60
2022-08-04T09:53:22.677Z,4.70
2022-08-04T09:56:14.648Z,2.60
2022-08-04T09:58:52.583Z,1.58
2022-08-04T10:01:23.787Z,3.47
2022-08-04T10:04:00.906Z,3.83
2022-08-04T10:07:02.539Z,3.78
2022-08-04T10:09:35.257Z,2.90
2022-08-04T10:12:23.026Z,2.40
2022-08-04T10:15:20.552Z,4.35
2022-08-04T10:18:17.248Z,3.97
2022-08-04T10:21:11.681Z,6.80
2022-08-04T10:24:00.456Z,1.77
2022-08-04T10:26:45.522Z,3.28
2022-08-04T10:29:19.644Z,1.75
2022-08-04T10:31:59.461Z,1.83
2022-08-04T10:34:36.339Z,3.30
2022-08-04T10:37:59.902Z,3.53
2022-08-04T10:40:48.577Z,2.45
2022-08-04T10:43:22.841Z,6.13
2022-08-04T10:45:57.980Z,2.08
2022-08-04T10:48:34.773Z,4.50
2022-08-04T10:51:15.522Z,2.13
2022-08-04T10:53:44.269Z,2.78
2022-08-04T10:56:22.413Z,2.85
2022-08-04T10:59:03.205Z,4.40
2022-08-04T11:02:03.040Z,3.50
2022-08-04T11:04:42.505Z,3.70
2022-08-04T11:07:10.846Z,3.25
2022-08-04T11:09:40.183Z,2.30
2022-08-04T11:12:12.891Z,4.13
2022-08-04T11:14:52.147Z,2.47
2022-08-04T11:17:27.266Z,3.45
2022-08-04T11:20:35.163Z,6.50
2022-08-04T11:23:11.905Z,3.30
2022-08-04T11:25:52.979Z,2.90
2022-08-04T11:28:58.414Z,3.22
2022-08-04T11:31:32.916Z,4.20
2022-08-04T11:34:27.353Z,7.85
2022-08-04T11:37:18.944Z,3.45
2022-08-04T11:39:54.384Z,5.45
2022-08-04T11:42:28.253Z,3.85
2022-08-04T11:45:06.590Z,2.88
2022-08-04T11:47:39.797Z,3.63
2022-08-04T11:50:09.339Z,3.60
2022-08-04T11:52:39.919Z,4.55
2022-08-04T11:55:11.467Z,3.83
2022-08-04T11:57:39.116Z,5.15
2022-08-04T12:00:12.553Z,2.08
2022-08-04T12:03:29.312Z,4.20
2022-08-04T12:06:17.869Z,3.95
2022-08-04T12:08:52.055Z,4.32
2022-08-04T12:11:24.608Z,2.38
2022-08-04T12:14:09.467Z,3.40
2022-08-04T12:16:45.348Z,4.72
2022-08-04T12:19:33.952Z,8.52
2022-08-04T12:22:20.827Z,2.30
2022-08-04T12:25:14.406Z,4.03
2022-08-04T12:27:55.608Z,2.95
2022-08-04T12:31:02.484Z,3.63
2022-08-04T12:33:23.866Z,3.97
2022-08-04T12:36:22.188Z,4.47
2022-08-04T12:38:58.646Z,2.92
2022-08-04T12:41:30.767Z,4.75
2022-08-04T12:44:36.479Z,9.02
2022-08-04T12:47:28.283Z,4.32
2022-08-04T12:50:00.406Z,5.10
2022-08-04T12:52:51.571Z,4.80
2022-08-04T12:55:16.978Z,4.63
2022-08-04T12:57:44.451Z,4.43
2022-08-04T13:00:11.588Z,5.45
2022-08-04T13:02:46.281Z,4.93
2022-08-04T13:05:17.082Z,6.53
2022-08-04T13:07:50.844Z,4.38
2022-08-04T13:10:20.152Z,2.08
2022-08-04T13:13:00.815Z,5.57
2022-08-04T13:15:29.188Z,4.50
2022-08-04T13:18:14.961Z,3.38
2022-08-04T13:20:56.376Z,3.05
2022-08-04T13:23:26.356Z,6.68
2022-08-04T13:26:45.048Z,4.97
2022-08-04T13:28:49.192Z,2.90
2022-08-04T13:34:02.375Z,3.72
2022-08-04T13:36:30.723Z,4.00
2022-08-04T13:39:08.746Z,5.30
2022-08-04T13:41:40.980Z,2.30
2022-08-04T13:44:17.310Z,3.40
2022-08-04T13:46:50.980Z,7.97
2022-08-04T13:49:38.131Z,11.57
2022-08-04T13:52:10.770Z,2.47
2022-08-04T13:54:42.685Z,4.53
2022-08-04T13:57:17.414Z,4.57
2022-08-04T13:59:51.662Z,3.90
2022-08-04T14:02:44.572Z,2.80
2022-08-04T14:05:32.418Z,1.80
2022-08-04T14:08:07.448Z,2.25
2022-08-04T14:10:35.980Z,3.17
2022-08-04T14:13:05.996Z,2.22
2022-08-04T14:16:02.908Z,4.68
2022-08-04T14:18:32.606Z,2.67
2022-08-04T14:21:16.861Z,4.22
2022-08-04T14:23:49.772Z,3.03
2022-08-04T14:26:20.772Z,2.90
2022-08-04T14:29:27.025Z,3.50
2022-08-04T14:32:01.213Z,2.42
2022-08-04T14:34:30.131Z,2.55
2022-08-04T14:37:17.901Z,2.65
2022-08-04T14:40:17.952Z,5.55
2022-08-04T14:42:55.264Z,3.90
2022-08-04T14:45:55.025Z,3.13
2022-08-04T14:48:22.549Z,3.80
2022-08-04T14:50:50.632Z,2.15
2022-08-04T14:53:23.109Z,4.10
2022-08-04T14:55:52.043Z,4.25
2022-08-04T14:58:34.685Z,5.13
2022-08-04T15:03:49.863Z,6.97
2022-08-04T15:06:22.718Z,2.58
2022-08-04T15:08:51.619Z,3.90
2022-08-04T15:11:22.781Z,8.15
2022-08-04T15:13:51.069Z,7.10
2022-08-04T15:16:17.824Z,3.97
2022-08-04T15:18:49.191Z,5.28
2022-08-04T15:21:16.858Z,4.40
2022-08-04T15:23:43.716Z,5.03
2022-08-04T15:26:17.061Z,6.03
2022-08-04T15:28:49.626Z,2.38
2022-08-04T15:32:06.580Z,7.93
2022-08-04T15:34:08.275Z,4.55
2022-08-04T15:36:56.261Z,10.25
2022-08-04T15:39:33.396Z,6.28
2022-08-04T15:42:23.890Z,2.67
2022-08-04T15:45:21.863Z,4.18
2022-08-04T15:48:11.158Z,4.50
2022-08-04T15:51:02.881Z,3.53
2022-08-04T15:54:02.404Z,2.22
2022-08-04T15:56:29.954Z,3.40
2022-08-04T15:58:57.079Z,3.67
2022-08-04T16:01:24.461Z,2.88
2022-08-04T16:03:59.698Z,2.85
2022-08-04T16:06:29.533Z,4.72
2022-08-04T16:09:05.122Z,4.65
2022-08-04T16:11:33.111Z,5.10
2022-08-04T16:14:02.391Z,3.28
2022-08-04T16:16:42.300Z,4.22
2022-08-04T16:19:14.504Z,2.95
2022-08-04T16:21:49.735Z,1.77
2022-08-04T16:24:21.417Z,7.25
2022-08-04T16:27:00.436Z,3.40
2022-08-04T16:29:47.233Z,9.45
2022-08-04T16:32:17.017Z,3.55
2022-08-04T16:34:55.015Z,7.28
2022-08-04T16:37:32.588Z,4.38
2022-08-04T16:40:37.203Z,12.25
2022-08-04T16:43:16.905Z,4.70
2022-08-04T16:45:46.261Z,6.47
2022-08-04T16:48:14.616Z,5.85
2022-08-04T16:50:50.554Z,8.70
2022-08-04T16:54:03.054Z,11.43
2022-08-04T16:56:06.893Z,10.45
2022-08-04T16:58:36.717Z,4.65
2022-08-04T17:01:12.225Z,5.65
2022-08-04T17:04:04.680Z,6.22
2022-08-04T17:06:39.415Z,7.90
2022-08-04T17:09:28.806Z,9.85
2022-08-04T17:11:56.964Z,11.85
2022-08-04T17:14:30.055Z,15.05
2022-08-04T17:17:00.188Z,10.55
2022-08-04T17:19:27.152Z,9.02
2022-08-04T17:22:04.392Z,5.68
2022-08-04T17:24:38.340Z,4.55
2022-08-04T17:28:09.262Z,7.47
2022-08-04T17:29:53.418Z,7.43
2022-08-04T17:32:22.634Z,7.82
2022-08-04T17:34:52.040Z,13.18
2022-08-04T17:37:40.617Z,10.23
2022-08-04T17:40:10.328Z,8.13
2022-08-04T17:42:39.887Z,7.60
2022-08-04T17:45:48.754Z,11.95
2022-08-04T17:47:55.895Z,8.65
2022-08-04T17:50:27.700Z,14.02
2022-08-04T17:53:02.290Z,6.85
2022-08-04T17:55:49.607Z,11.57
2022-08-04T17:58:22.369Z,10.90
2022-08-04T18:01:22.645Z,10.32
2022-08-04T18:03:52.915Z,11.18
2022-08-04T18:06:22.101Z,11.07
2022-08-04T18:08:57.431Z,5.60
2022-08-04T18:11:29.815Z,12.93
2022-08-04T18:14:09.357Z,8.55
2022-08-04T18:16:45.737Z,13.50
2022-08-04T18:19:15.359Z,10.85
2022-08-04T18:21:46.494Z,14.60
2022-08-04T18:24:36.044Z,13.80
2022-08-04T18:27:19.751Z,11.45
2022-08-04T18:30:14.961Z,10.88
2022-08-04T18:32:34.164Z,18.08
2022-08-04T18:35:05.637Z,11.48
2022-08-04T18:38:06.816Z,18.92
2022-08-04T18:40:26.564Z,14.38
2022-08-04T18:42:56.494Z,12.50
2022-08-04T18:45:24.211Z,10.15
2022-08-04T18:48:01.479Z,16.63
2022-08-04T18:51:00.733Z,12.32
2022-08-04T18:53:16.707Z,12.48
2022-08-04T18:55:56.552Z,10.48
2022-08-04T18:58:27.270Z,8.93
2022-08-04T19:00:56.082Z,10.00
2022-08-04T19:03:30.446Z,13.85
2022-08-04T19:05:59.932Z,9.20
2022-08-04T19:08:32.893Z,11.00
2022-08-04T19:11:22.006Z,8.05
2022-08-04T19:13:57.925Z,11.45
2022-08-04T19:16:29.887Z,10.25
2022-08-04T19:18:58.500Z,15.98
2022-08-04T19:22:00.919Z,13.27
2022-08-04T19:24:32.180Z,13.07
2022-08-04T19:27:02.355Z,11.20
2022-08-04T19:29:38.012Z,15.00
2022-08-04T19:34:56.765Z,9.43
2022-08-04T19:37:57.003Z,17.17
2022-08-04T19:40:12.992Z,18.65
2022-08-04T19:42:40.388Z,21.23
2022-08-04T19:45:07.466Z,12.13
2022-08-04T19:48:17.680Z,13.77
2022-08-04T19:50:23.718Z,11.60
2022-08-04T19:52:51.782Z,9.52
2022-08-04T19:58:08.995Z,12.70
2022-08-04T20:00:37.670Z,10.90
2022-08-04T20:03:11.417Z,17.45
2022-08-04T20:05:55.376Z,8.65
2022-08-04T20:08:26.370Z,9.98
2022-08-04T20:10:54.862Z,13.68
2022-08-04T20:13:21.915Z,9.82
2022-08-04T20:15:57.662Z,8.98
2022-08-04T20:18:36.803Z,10.95
2022-08-04T20:21:19.591Z,15.30
2022-08-04T20:23:52.351Z,14.85
2022-08-04T20:26:19.119Z,16.27
2022-08-04T20:28:52.033Z,11.77
2022-08-04T20:31:20.962Z,11.85
2022-08-04T20:33:53.808Z,16.90
2022-08-04T20:36:22.602Z,10.07
2022-08-04T20:38:52.685Z,16.58
2022-08-04T20:41:21.110Z,10.60
2022-08-04T20:43:49.634Z,9.38
2022-08-04T20:46:29.526Z,13.88
2022-08-04T20:48:57.526Z,14.75
2022-08-04T20:54:16.226Z,10.55
2022-08-04T20:56:50.649Z,6.32
2022-08-04T20:59:18.500Z,9.43
2022-08-04T21:01:45.267Z,8.32
2022-08-04T21:04:34.420Z,15.23
2022-08-04T21:07:06.448Z,10.10
2022-08-04T21:09:38.352Z,14.88
2022-08-04T21:12:26.733Z,14.45
2022-08-04T21:14:57.143Z,7.18
2022-08-04T21:17:56.964Z,13.80
2022-08-04T21:20:12.888Z,4.20
2022-08-04T21:22:40.790Z,8.70
2022-08-04T21:25:16.227Z,5.70
2022-08-04T21:27:43.635Z,5.40
2022-08-04T21:30:24.051Z,5.70
2022-08-04T21:32:52.463Z,11.07
2022-08-04T21:35:19.180Z,5.28
2022-08-04T21:37:57.723Z,9.07
2022-08-04T21:40:36.893Z,5.22
2022-08-04T21:45:52.540Z,8.93
2022-08-04T21:48:19.144Z,8.77
2022-08-04T21:50:50.560Z,9.05
2022-08-04T21:53:19.731Z,10.60
2022-08-04T21:56:05.658Z,11.68
2022-08-04T21:58:34.843Z,9.95
2022-08-04T22:01:12.961Z,7.72
2022-08-04T22:03:52.767Z,5.72
2022-08-04T22:06:28.438Z,4.40
2022-08-04T22:08:56.731Z,11.88
2022-08-04T22:11:43.770Z,7.35
2022-08-04T22:14:16.958Z,5.93
2022-08-04T22:16:45.315Z,6.63
2022-08-04T22:19:13.559Z,7.00
2022-08-04T22:21:46.638Z,7.25
2022-08-04T22:24:14.511Z,5.57
2022-08-04T22:26:42.323Z,3.78
2022-08-04T22:29:14.572Z,6.00
2022-08-04T22:31:55.855Z,7.65
2022-08-04T22:34:24.830Z,1.73
2022-08-04T22:36:53.716Z,1.75
2022-08-04T22:39:23.509Z,1.13
2022-08-04T22:42:03.174Z,3.63
2022-08-04T22:44:32.350Z,1.45
2022-08-04T22:47:00.617Z,1.45
2022-08-04T22:49:31.661Z,1.88
2022-08-04T22:51:59.679Z,2.30
2022-08-04T22:54:31.734Z,4.18
2022-08-04T22:56:58.596Z,4.50
2022-08-04T22:59:26.569Z,2.65
2022-08-04T23:02:01.213Z,2.95
2022-08-04T23:04:30.134Z,4.45
2022-08-04T23:06:57.480Z,4.90
2022-08-04T23:09:27.039Z,4.50
2022-08-04T23:12:27.943Z,4.38
2022-08-04T23:14:56.654Z,1.50
2022-08-04T23:17:25.116Z,3.28
2022-08-04T23:19:58.063Z,1.27
2022-08-04T23:22:41.091Z,3.85
2022-08-04T23:25:15.397Z,3.00
2022-08-04T23:27:51.201Z,2.97
2022-08-04T23:30:24.662Z,2.45
2022-08-04T23:32:56.803Z,3.72
2022-08-04T23:35:23.569Z,3.88
2022-08-04T23:37:56.884Z,1.35
2022-08-04T23:40:33.435Z,3.53
2022-08-04T23:43:11.978Z,2.10
2022-08-04T23:46:04.486Z,3.10
2022-08-04T23:48:32.262Z,4.97
2022-08-04T23:51:13.659Z,1.88
2022-08-04T23:53:41.676Z,3.08
2022-08-04T23:56:27.863Z,3.90
2022-08-04T23:58:54.536Z,2.20
